Time;durP1;ratioP1;P1;durP2;ratioP2;P2;SDS_P1;SDS_P2;PMS_P1;PMS_P2;Temp;Humidity;BMP_temperature;BMP_pressure;BME280_temperature;BME280_humidity;BME280_pressure;Samples;Min_cycle;Max_cycle;Signal;HPM_P1;HPM_P2
2021/09/21 00:00:43;;;;;;;6.17;5.50;;;13.90;99.90;;;;;;5024808;28;20260;-80
2021/09/21 00:03:09;;;;;;;7.10;5.90;;;13.90;99.90;;;;;;5022607;28;20424;-80
2021/09/21 00:05:37;;;;;;;8.53;7.07;;;13.90;99.90;;;;;;5023211;28;20162;-80
2021/09/21 00:08:04;;;;;;;8.80;5.67;;;13.90;99.90;;;;;;5022339;28;20459;-80
2021/09/21 00:10:30;;;;;;;6.90;5.70;;;13.90;99.90;;;;;;5022443;28;20396;-80
2021/09/21 00:12:56;;;;;;;7.30;6.37;;;13.80;99.90;;;;;;5022443;28;20392;-80
2021/09/21 00:15:22;;;;;;;6.43;5.77;;;13.80;99.90;;;;;;5022262;28;20184;-80
2021/09/21 00:17:50;;;;;;;7.80;6.13;;;13.80;99.90;;;;;;5022950;28;20204;-80
2021/09/21 00:20:17;;;;;;;7.60;6.77;;;13.80;99.90;;;;;;5024177;28;20389;-80
2021/09/21 00:22:45;;;;;;;6.67;5.53;;;13.80;99.90;;;;;;5022022;28;20397;-81
2021/09/21 00:25:13;;;;;;;6.57;5.97;;;13.90;99.90;;;;;;5020751;28;20392;-80
2021/09/21 00:27:40;;;;;;;6.27;5.67;;;13.80;99.90;;;;;;5022933;28;20388;-80
2021/09/21 00:30:07;;;;;;;6.67;5.50;;;13.80;99.90;;;;;;5021484;28;20421;-80
2021/09/21 00:32:33;;;;;;;6.17;5.70;;;13.80;99.90;;;;;;5021358;28;20401;-80
2021/09/21 00:35:00;;;;;;;7.27;6.37;;;13.80;99.90;;;;;;5023197;28;20400;-80
2021/09/21 00:37:26;;;;;;;7.43;5.97;;;13.80;99.90;;;;;;5023264;28;20433;-80
2021/09/21 00:39:52;;;;;;;7.20;6.17;;;13.80;99.90;;;;;;5038214;28;20384;-78
2021/09/21 00:42:28;;;;;;;6.23;5.63;;;13.90;99.90;;;;;;5038209;28;20413;-78
2021/09/21 00:44:57;;;;;;;7.07;6.20;;;13.80;99.90;;;;;;5038176;28;20384;-77
2021/09/21 00:47:24;;;;;;;7.53;5.77;;;13.80;99.90;;;;;;5026727;28;20396;-80
2021/09/21 00:49:50;;;;;;;9.43;6.37;;;13.80;99.90;;;;;;5021710;28;20759;-80
2021/09/21 00:52:16;;;;;;;5.80;5.30;;;13.80;99.90;;;;;;5021187;28;20420;-80
2021/09/21 00:54:42;;;;;;;6.27;5.37;;;13.80;99.90;;;;;;5021971;28;20749;-80
2021/09/21 00:57:08;;;;;;;8.43;6.53;;;13.80;99.90;;;;;;5021963;28;20677;-80
2021/09/21 00:59:34;;;;;;;6.27;5.50;;;13.70;99.90;;;;;;5020789;28;20400;-80
2021/09/21 01:02:00;;;;;;;9.33;5.90;;;13.70;99.90;;;;;;5021669;28;20409;-80
2021/09/21 01:04:26;;;;;;;6.23;5.43;;;13.70;99.90;;;;;;5025482;28;20403;-79
2021/09/21 01:06:52;;;;;;;6.10;5.60;;;13.70;99.90;;;;;;5025950;28;20169;-80
2021/09/21 01:09:20;;;;;;;9.57;6.13;;;13.60;99.90;;;;;;5026803;28;20236;-80
2021/09/21 01:11:48;;;;;;;7.37;6.20;;;13.60;99.90;;;;;;5025356;28;20552;-79
2021/09/21 01:14:14;;;;;;;6.47;5.70;;;13.60;99.90;;;;;;5020138;28;20392;-80
2021/09/21 01:16:40;;;;;;;8.07;5.40;;;13.60;99.90;;;;;;5020175;28;20422;-79
2021/09/21 01:19:06;;;;;;;6.47;4.53;;;13.60;99.90;;;;;;5021203;28;20411;-80
2021/09/21 01:21:32;;;;;;;6.50;5.83;;;13.60;99.90;;;;;;5021251;28;20475;-80
2021/09/21 01:23:58;;;;;;;7.17;5.20;;;13.60;99.90;;;;;;5020256;28;20176;-80
2021/09/21 01:26:24;;;;;;;7.63;5.70;;;13.60;99.90;;;;;;5021396;28;20205;-80
2021/09/21 01:28:51;;;;;;;7.10;6.30;;;13.60;99.90;;;;;;5021333;28;20197;-80
2021/09/21 01:31:17;;;;;;;7.93;6.10;;;13.70;99.90;;;;;;5023859;28;20419;-80
2021/09/21 01:33:47;;;;;;;5.40;4.90;;;13.60;99.90;;;;;;5034331;28;20432;-78
2021/09/21 01:36:15;;;;;;;8.30;5.90;;;13.60;99.90;;;;;;5026786;28;20544;-80
2021/09/21 01:38:44;;;;;;;6.83;6.07;;;13.60;99.90;;;;;;5021515;28;20431;-79
2021/09/21 01:41:10;;;;;;;5.80;4.87;;;13.60;99.90;;;;;;5018476;28;20420;-79
2021/09/21 01:43:35;;;;;;;6.90;4.83;;;13.60;99.90;;;;;;5020665;28;20482;-80
2021/09/21 01:46:01;;;;;;;6.00;4.70;;;13.60;99.90;;;;;;5020447;28;20252;-80
2021/09/21 01:48:27;;;;;;;6.67;5.30;;;13.50;99.90;;;;;;5020497;28;20193;-80
2021/09/21 01:51:00;;;;;;;6.80;6.20;;;13.60;99.90;;;;;;5020144;28;20166;-80
2021/09/21 01:53:39;;;;;;;7.20;5.50;;;13.50;99.90;;;;;;5021216;28;20251;-79
2021/09/21 02:01:24;;;;;;;9.40;5.70;;;13.50;99.90;;;;;;5020497;28;20392;-80
2021/09/21 02:03:52;;;;;;;8.40;4.93;;;13.50;99.90;;;;;;5020116;28;20435;-80
2021/09/21 02:06:21;;;;;;;6.10;5.30;;;13.50;99.90;;;;;;5019192;28;20470;-80
2021/09/21 02:08:47;;;;;;;9.60;6.00;;;13.50;99.90;;;;;;5020319;28;20871;-79
2021/09/21 02:11:13;;;;;;;7.90;5.93;;;13.40;99.90;;;;;;5020232;28;20401;-80
2021/09/21 02:13:39;;;;;;;9.23;5.87;;;13.40;99.90;;;;;;5018933;28;20165;-80
2021/09/21 02:16:06;;;;;;;7.20;5.60;;;13.40;99.90;;;;;;5020019;28;20874;-80
2021/09/21 02:18:32;;;;;;;5.77;5.03;;;13.40;99.90;;;;;;5019275;28;20169;-80
2021/09/21 02:20:58;;;;;;;5.67;4.97;;;13.40;99.90;;;;;;5019747;28;20404;-80
2021/09/21 02:23:24;;;;;;;6.00;5.40;;;13.40;99.90;;;;;;5018640;28;20398;-80
2021/09/21 02:25:49;;;;;;;5.87;5.07;;;13.30;99.90;;;;;;5020235;28;20513;-80
2021/09/21 02:28:16;;;;;;;6.93;5.57;;;13.40;99.90;;;;;;5019833;28;20514;-80
2021/09/21 02:30:42;;;;;;;4.93;4.20;;;13.40;99.90;;;;;;5019694;28;20564;-80
2021/09/21 02:33:08;;;;;;;9.63;6.30;;;13.30;99.90;;;;;;5018827;28;20452;-80
2021/09/21 02:35:34;;;;;;;7.27;5.63;;;13.40;99.90;;;;;;5020112;28;20183;-80
2021/09/21 02:38:00;;;;;;;5.97;5.33;;;13.40;99.90;;;;;;5020584;28;20535;-80
2021/09/21 02:40:29;;;;;;;4.63;4.23;;;13.30;99.90;;;;;;5019569;28;20512;-80
2021/09/21 02:42:55;;;;;;;5.40;4.90;;;13.40;99.90;;;;;;5018327;28;20617;-79
2021/09/21 02:45:22;;;;;;;7.07;5.03;;;13.30;99.90;;;;;;5018614;28;20445;-80
2021/09/21 02:47:48;;;;;;;6.53;5.17;;;13.30;99.90;;;;;;5020108;28;20412;-80
2021/09/21 02:50:13;;;;;;;7.23;4.80;;;13.30;99.90;;;;;;5018840;28;20397;-80
2021/09/21 02:52:39;;;;;;;6.90;5.67;;;13.20;99.90;;;;;;5020894;28;20403;-78
2021/09/21 02:55:06;;;;;;;7.13;5.60;;;13.30;99.90;;;;;;5019964;28;20162;-80
2021/09/21 02:57:34;;;;;;;6.87;5.73;;;13.20;99.90;;;;;;5019399;28;20224;-80
2021/09/21 03:00:00;;;;;;;5.90;5.10;;;13.20;99.90;;;;;;5022820;28;20849;-80
2021/09/21 03:02:29;;;;;;;5.20;4.80;;;13.20;99.90;;;;;;5024302;28;20400;-80
2021/09/21 03:04:58;;;;;;;6.23;4.10;;;13.20;99.90;;;;;;5023655;28;20424;-80
2021/09/21 03:07:33;;;;;;;9.00;4.73;;;13.30;99.90;;;;;;5023558;28;20988;-80
2021/09/21 03:10:14;;;;;;;8.67;5.50;;;13.30;99.90;;;;;;5022799;28;20486;-80
2021/09/21 03:18:07;;;;;;;4.87;4.37;;;13.20;99.90;;;;;;5023981;28;20799;-80
2021/09/21 03:20:33;;;;;;;6.80;4.67;;;13.20;99.90;;;;;;5023558;28;20427;-80
2021/09/21 03:22:59;;;;;;;5.00;4.57;;;13.20;99.90;;;;;;5023385;28;20196;-80
2021/09/21 03:25:25;;;;;;;6.60;5.90;;;13.20;99.90;;;;;;5023355;28;20192;-80
2021/09/21 03:27:50;;;;;;;9.20;4.60;;;13.20;99.90;;;;;;5023461;28;20263;-80
2021/09/21 03:30:16;;;;;;;6.17;4.33;;;13.20;99.90;;;;;;5023014;28;20189;-80
2021/09/21 03:32:42;;;;;;;7.07;4.90;;;13.20;99.90;;;;;;5022074;28;20237;-80
2021/09/21 03:35:09;;;;;;;6.73;4.17;;;13.20;99.90;;;;;;5023897;28;20525;-80
2021/09/21 03:37:36;;;;;;;6.03;4.27;;;13.20;99.90;;;;;;5023158;28;20176;-80
2021/09/21 03:40:06;;;;;;;5.90;4.77;;;13.20;99.90;;;;;;5023652;28;20490;-80
2021/09/21 03:42:32;;;;;;;5.13;4.67;;;13.20;99.90;;;;;;5022408;28;20947;-80
2021/09/21 03:44:57;;;;;;;6.93;5.00;;;13.20;99.90;;;;;;5023615;28;20401;-80
2021/09/21 03:47:23;;;;;;;5.63;5.13;;;13.10;99.90;;;;;;5022830;28;20404;-80
2021/09/21 03:49:49;;;;;;;14.63;5.23;;;13.10;99.90;;;;;;5023121;28;20197;-80
2021/09/21 03:52:15;;;;;;;6.27;4.70;;;13.10;99.90;;;;;;5023271;28;20606;-80
2021/09/21 03:54:41;;;;;;;5.13;4.60;;;13.00;99.90;;;;;;5023187;28;20166;-80
2021/09/21 03:57:07;;;;;;;7.60;4.97;;;13.00;99.90;;;;;;5022659;28;20244;-80
2021/09/21 03:59:32;;;;;;;10.40;5.20;;;13.10;99.90;;;;;;5023458;28;20173;-80
2021/09/21 04:01:58;;;;;;;7.23;5.47;;;13.00;99.90;;;;;;5023531;28;20169;-80
2021/09/21 04:04:24;;;;;;;5.93;4.77;;;13.00;99.90;;;;;;5021837;28;20166;-80
2021/09/21 04:06:50;;;;;;;4.67;4.20;;;13.00;99.90;;;;;;5005282;28;20858;-80
2021/09/21 04:09:16;;;;;;;5.80;4.67;;;13.00;99.90;;;;;;5021442;28;20284;-80
2021/09/21 04:11:41;;;;;;;4.90;4.50;;;13.00;99.90;;;;;;5021866;28;20166;-80
2021/09/21 04:14:08;;;;;;;9.23;5.20;;;13.00;99.90;;;;;;5022495;28;20165;-80
2021/09/21 04:16:33;;;;;;;5.13;4.63;;;13.00;99.90;;;;;;5021721;28;20480;-80
2021/09/21 04:19:00;;;;;;;11.30;5.70;;;13.00;99.90;;;;;;5023436;28;20451;-80
2021/09/21 04:21:27;;;;;;;6.87;4.73;;;13.00;99.90;;;;;;5023963;28;20525;-80
2021/09/21 04:23:56;;;;;;;5.20;4.70;;;13.00;99.90;;;;;;5021312;28;20431;-80
2021/09/21 04:26:22;;;;;;;6.80;5.00;;;13.00;99.90;;;;;;5010973;28;20428;-80
2021/09/21 04:28:48;;;;;;;5.97;5.03;;;13.10;99.90;;;;;;5022346;28;20464;-80
2021/09/21 04:31:18;;;;;;;6.73;4.90;;;13.10;99.90;;;;;;5022133;28;20619;-80
2021/09/21 04:33:44;;;;;;;5.53;4.97;;;13.00;99.90;;;;;;5012169;28;20181;-80
2021/09/21 04:36:11;;;;;;;15.33;6.40;;;13.00;99.90;;;;;;5003892;28;20742;-80
2021/09/21 04:38:39;;;;;;;6.97;5.87;;;13.00;99.90;;;;;;5005773;28;20185;-80
2021/09/21 04:41:06;;;;;;;5.00;4.50;;;13.00;99.90;;;;;;5022103;28;20446;-80
2021/09/21 04:43:35;;;;;;;7.67;4.33;;;13.00;99.90;;;;;;5022373;28;20427;-79
2021/09/21 04:46:01;;;;;;;5.67;5.17;;;13.00;99.90;;;;;;5021938;28;20408;-80
2021/09/21 04:48:27;;;;;;;6.33;5.57;;;13.00;99.90;;;;;;5017931;28;20461;-79
2021/09/21 04:50:53;;;;;;;6.33;5.73;;;13.00;99.90;;;;;;5014331;28;20847;-80
2021/09/21 04:53:19;;;;;;;7.10;6.07;;;13.00;99.90;;;;;;5017490;28;20169;-80
2021/09/21 04:55:44;;;;;;;5.90;5.40;;;12.90;99.90;;;;;;5011216;28;20590;-80
2021/09/21 04:58:10;;;;;;;10.00;6.57;;;13.00;99.90;;;;;;5001402;28;20233;-80
2021/09/21 05:00:36;;;;;;;8.77;5.37;;;12.90;99.90;;;;;;5003969;28;20181;-80
2021/09/21 05:03:02;;;;;;;6.67;5.97;;;12.90;99.90;;;;;;5002897;28;20174;-80
2021/09/21 05:05:28;;;;;;;6.23;5.10;;;13.00;99.90;;;;;;5008926;28;20170;-80
2021/09/21 05:07:55;;;;;;;5.73;5.10;;;13.00;99.90;;;;;;5034785;28;20525;-80
2021/09/21 05:10:21;;;;;;;10.30;6.10;;;13.00;99.90;;;;;;5025707;28;20420;-80
2021/09/21 05:12:47;;;;;;;6.30;4.90;;;13.10;99.90;;;;;;5002910;28;20428;-80
2021/09/21 05:15:12;;;;;;;6.07;5.57;;;13.00;99.90;;;;;;5002691;28;20173;-80
2021/09/21 05:17:38;;;;;;;7.27;5.80;;;13.00;99.90;;;;;;5004857;28;20178;-80
2021/09/21 05:20:06;;;;;;;6.90;5.87;;;13.00;99.90;;;;;;5011075;28;20173;-80
2021/09/21 05:22:32;;;;;;;14.57;6.80;;;12.90;99.90;;;;;;5021418;28;20165;-80
2021/09/21 05:24:58;;;;;;;6.87;6.20;;;12.90;99.90;;;;;;5010097;28;20424;-80
2021/09/21 05:27:26;;;;;;;7.57;5.37;;;12.90;99.90;;;;;;5011710;28;20170;-80
2021/09/21 05:29:51;;;;;;;9.27;7.60;;;13.00;99.90;;;;;;5016426;28;20448;-80
2021/09/21 05:32:17;;;;;;;6.37;4.73;;;13.00;99.90;;;;;;5017500;28;20389;-80
2021/09/21 05:34:43;;;;;;;7.50;6.20;;;13.00;99.90;;;;;;5016516;28;20162;-80
2021/09/21 05:37:11;;;;;;;5.60;5.10;;;13.10;99.90;;;;;;5010697;28;20178;-81
2021/09/21 05:39:37;;;;;;;6.17;5.53;;;13.10;99.90;;;;;;5004644;28;20892;-80
2021/09/21 05:42:03;;;;;;;8.60;6.30;;;13.00;99.90;;;;;;5002693;28;20428;-80
2021/09/21 05:44:28;;;;;;;6.43;5.90;;;13.00;99.90;;;;;;4989864;28;20161;-80
2021/09/21 05:46:54;;;;;;;7.87;5.50;;;13.10;99.90;;;;;;5008196;28;20467;-80
2021/09/21 05:49:21;;;;;;;6.80;5.30;;;13.10;99.90;;;;;;5018875;28;20201;-80
2021/09/21 05:51:47;;;;;;;6.20;5.47;;;13.10;99.90;;;;;;5021833;28;20408;-81
2021/09/21 05:54:13;;;;;;;7.07;5.70;;;13.10;99.90;;;;;;5013389;28;20166;-80
2021/09/21 05:56:38;;;;;;;16.33;7.40;;;13.10;99.90;;;;;;5017173;28;20448;-80
2021/09/21 05:59:04;;;;;;;11.10;6.90;;;13.10;99.90;;;;;;5004553;28;20169;-80
2021/09/21 06:01:32;;;;;;;8.97;6.00;;;13.10;99.90;;;;;;5019411;28;20561;-80
2021/09/21 06:03:58;;;;;;;7.83;6.43;;;13.20;99.90;;;;;;5018468;28;20172;-80
2021/09/21 06:06:24;;;;;;;5.73;5.10;;;13.10;99.90;;;;;;5002927;28;20449;-80
2021/09/21 06:08:50;;;;;;;7.73;6.27;;;13.10;99.90;;;;;;4991134;28;20202;-80
2021/09/21 06:11:28;;;;;;;9.20;7.47;;;13.10;99.90;;;;;;5010685;28;20408;-79
2021/09/21 06:13:56;;;;;;;6.40;5.60;;;13.20;99.90;;;;;;5005413;28;20173;-80
2021/09/21 06:16:22;;;;;;;7.83;5.43;;;13.20;99.90;;;;;;5017726;28;20833;-81
2021/09/21 06:18:48;;;;;;;7.07;5.57;;;13.10;99.90;;;;;;5021402;28;20487;-81
2021/09/21 06:21:14;;;;;;;6.87;6.03;;;13.20;99.90;;;;;;5024504;28;20427;-80
2021/09/21 06:23:40;;;;;;;7.70;6.30;;;13.20;99.90;;;;;;5024220;28;20688;-80
2021/09/21 06:26:06;;;;;;;9.60;6.20;;;13.10;99.90;;;;;;5008550;28;20237;-81
2021/09/21 06:28:32;;;;;;;7.33;5.87;;;13.20;99.90;;;;;;4995135;28;20543;-80
2021/09/21 06:30:57;;;;;;;10.47;7.03;;;13.20;99.90;;;;;;5019326;28;20169;-81
2021/09/21 06:33:24;;;;;;;7.17;5.87;;;13.20;99.90;;;;;;5003469;28;20190;-80
2021/09/21 06:35:51;;;;;;;6.50;5.63;;;13.20;99.90;;;;;;5016794;28;20180;-80
2021/09/21 06:38:17;;;;;;;7.90;5.90;;;13.20;99.90;;;;;;5012726;28;20908;-80
2021/09/21 06:40:43;;;;;;;6.40;5.30;;;13.20;99.90;;;;;;5014371;28;20467;-80
2021/09/21 06:43:08;;;;;;;6.57;5.97;;;13.30;99.90;;;;;;5021027;28;20431;-80
2021/09/21 06:45:34;;;;;;;6.40;5.63;;;13.30;99.90;;;;;;5008427;28;20193;-80
2021/09/21 06:48:00;;;;;;;6.80;6.17;;;13.30;99.90;;;;;;5010923;28;20498;-80
2021/09/21 06:50:26;;;;;;;7.00;5.93;;;13.40;99.90;;;;;;5012879;28;20689;-79
2021/09/21 06:52:52;;;;;;;9.47;6.47;;;13.50;99.90;;;;;;5003856;28;20176;-80
2021/09/21 06:55:18;;;;;;;8.73;5.17;;;13.50;99.90;;;;;;5023242;28;20181;-80
2021/09/21 06:57:53;;;;;;;10.73;5.97;;;13.50;99.90;;;;;;5000238;28;20213;-80
2021/09/21 07:00:20;;;;;;;7.07;5.63;;;13.50;99.90;;;;;;5023976;28;20426;-79
2021/09/21 07:02:50;;;;;;;6.23;5.63;;;13.50;99.90;;;;;;5024489;28;20491;-80
2021/09/21 07:05:16;;;;;;;8.67;7.27;;;13.50;99.90;;;;;;5020829;28;20486;-79
2021/09/21 07:07:44;;;;;;;8.77;6.53;;;13.60;99.90;;;;;;5025519;28;20416;-79
2021/09/21 07:10:11;;;;;;;6.37;5.77;;;13.70;99.90;;;;;;5022061;28;20310;-80
2021/09/21 07:12:37;;;;;;;6.67;5.53;;;13.80;99.90;;;;;;5011768;28;20518;-79
2021/09/21 07:15:03;;;;;;;6.90;6.00;;;13.80;99.90;;;;;;4987566;28;20460;-80
2021/09/21 07:17:29;;;;;;;13.33;7.67;;;13.90;99.90;;;;;;5022271;28;20185;-80
2021/09/21 07:19:55;;;;;;;7.90;6.30;;;13.90;99.90;;;;;;5015907;28;20404;-79
2021/09/21 07:22:21;;;;;;;7.97;6.97;;;13.90;99.90;;;;;;4993826;28;20177;-81
2021/09/21 07:24:47;;;;;;;10.73;6.27;;;13.90;99.90;;;;;;5010577;28;20420;-79
2021/09/21 07:27:13;;;;;;;8.90;7.33;;;14.00;99.90;;;;;;5007085;28;20173;-80
2021/09/21 07:29:39;;;;;;;13.47;7.30;;;14.00;99.90;;;;;;5005956;28;20487;-80
2021/09/21 07:32:05;;;;;;;7.87;6.37;;;14.00;99.90;;;;;;5005047;28;20174;-80
2021/09/21 07:34:31;;;;;;;12.97;6.73;;;14.00;99.90;;;;;;5022397;28;20615;-80
2021/09/21 07:36:57;;;;;;;8.27;6.60;;;14.00;99.90;;;;;;5016074;28;20499;-80
2021/09/21 07:39:23;;;;;;;6.97;6.27;;;14.10;99.90;;;;;;5016446;28;20162;-81
2021/09/21 07:41:49;;;;;;;7.67;5.40;;;14.10;99.90;;;;;;5022023;28;20418;-80
2021/09/21 07:44:14;;;;;;;7.40;5.90;;;14.20;99.90;;;;;;5014361;28;20193;-80
2021/09/21 07:46:40;;;;;;;6.57;5.90;;;14.20;99.90;;;;;;5021641;28;20204;-79
2021/09/21 07:49:06;;;;;;;6.80;6.03;;;14.20;99.90;;;;;;5023309;28;20201;-81
2021/09/21 07:51:32;;;;;;;7.17;6.57;;;14.30;99.90;;;;;;5021843;28;20173;-81
2021/09/21 07:54:01;;;;;;;7.43;6.10;;;14.40;99.90;;;;;;5010449;28;20404;-80
2021/09/21 07:56:28;;;;;;;7.53;5.93;;;14.40;99.90;;;;;;5002879;28;20464;-81
2021/09/21 07:58:54;;;;;;;7.23;6.60;;;14.60;99.90;;;;;;5033817;28;20451;-81
2021/09/21 08:01:21;;;;;;;8.80;6.97;;;14.00;99.90;;;;;;4995659;28;20440;-81
2021/09/21 08:03:47;;;;;;;8.13;6.57;;;14.10;99.90;;;;;;5029252;28;20500;-81
2021/09/21 08:06:13;;;;;;;8.40;6.80;;;14.60;99.90;;;;;;5019547;28;20451;-80
2021/09/21 08:08:40;;;;;;;7.40;6.50;;;14.70;99.90;;;;;;5014027;28;20579;-80
2021/09/21 08:11:08;;;;;;;9.47;6.90;;;14.90;99.90;;;;;;5019979;28;20829;-80
2021/09/21 08:13:34;;;;;;;8.27;5.93;;;14.80;99.90;;;;;;5033242;28;20847;-81
2021/09/21 08:16:00;;;;;;;10.60;6.50;;;14.20;99.90;;;;;;5019953;28;20424;-80
2021/09/21 08:18:26;;;;;;;8.50;5.87;;;14.30;99.90;;;;;;5015072;28;20409;-80
2021/09/21 08:20:52;;;;;;;8.40;6.20;;;14.50;99.90;;;;;;5015195;28;20184;-79
2021/09/21 08:23:18;;;;;;;7.27;6.60;;;14.50;99.90;;;;;;5020339;28;20227;-80
2021/09/21 08:25:44;;;;;;;12.23;7.10;;;15.00;99.90;;;;;;5019872;28;20451;-80
2021/09/21 08:28:10;;;;;;;11.73;5.80;;;15.40;99.90;;;;;;5017034;28;20460;-80
2021/09/21 08:30:36;;;;;;;9.17;8.27;;;15.60;99.90;;;;;;5022743;28;20244;-80
2021/09/21 08:33:02;;;;;;;7.37;6.40;;;15.70;99.90;;;;;;5022008;28;20196;-81
2021/09/21 08:35:29;;;;;;;5.43;4.93;;;15.60;99.90;;;;;;5023336;28;20420;-81
2021/09/21 08:37:55;;;;;;;6.13;5.63;;;15.50;99.90;;;;;;5022863;28;20491;-80
2021/09/21 08:40:21;;;;;;;7.80;5.40;;;15.50;99.90;;;;;;5030803;28;20420;-80
2021/09/21 08:42:47;;;;;;;6.80;6.10;;;15.40;99.90;;;;;;5029378;28;20424;-81
2021/09/21 08:45:13;;;;;;;8.43;7.53;;;15.80;99.90;;;;;;5024643;28;20222;-79
2021/09/21 08:47:40;;;;;;;7.33;6.53;;;15.70;99.90;;;;;;5014138;28;20765;-81
2021/09/21 08:50:07;;;;;;;6.53;5.90;;;16.00;99.90;;;;;;5018961;28;20948;-81
2021/09/21 08:52:33;;;;;;;7.00;6.30;;;16.20;99.90;;;;;;5001801;28;20413;-81
2021/09/21 08:55:01;;;;;;;6.97;6.37;;;16.30;99.90;;;;;;5012874;28;20419;-80
2021/09/21 08:57:28;;;;;;;6.17;5.67;;;16.10;99.90;;;;;;4972480;28;20559;-81
2021/09/21 08:59:55;;;;;;;9.60;7.10;;;16.60;99.90;;;;;;5014920;28;20424;-80
2021/09/21 09:02:23;;;;;;;7.80;6.70;;;16.20;99.90;;;;;;5027601;28;20491;-80
2021/09/21 09:05:02;;;;;;;9.43;6.83;;;16.70;99.90;;;;;;5032792;28;20411;-80
2021/09/21 09:07:28;;;;;;;7.60;6.40;;;16.70;99.90;;;;;;5034599;28;20885;-79
2021/09/21 09:10:14;;;;;;;11.20;6.60;;;16.80;99.90;;;;;;5030756;28;20900;-78
2021/09/21 09:12:40;;;;;;;12.83;6.67;;;16.50;99.90;;;;;;5030384;28;20424;-79
2021/09/21 09:15:11;;;;;;;10.60;6.33;;;16.20;99.90;;;;;;5048174;28;20425;-77
2021/09/21 09:17:38;;;;;;;8.80;6.40;;;16.90;99.90;;;;;;5029964;28;20193;-77
2021/09/21 09:20:05;;;;;;;6.93;5.53;;;17.00;99.90;;;;;;5033093;28;20420;-79
2021/09/21 09:22:31;;;;;;;6.83;6.23;;;15.90;99.90;;;;;;5027387;28;20412;-80
2021/09/21 09:25:04;;;;;;;7.73;6.93;;;16.10;99.90;;;;;;5023815;28;20397;-78
2021/09/21 09:27:38;;;;;;;7.60;6.30;;;17.00;99.90;;;;;;5022839;28;20192;-81
2021/09/21 09:30:09;;;;;;;8.63;6.70;;;17.10;99.90;;;;;;5023222;28;20448;-79
2021/09/21 09:32:47;;;;;;;9.00;6.60;;;17.60;99.90;;;;;;5021910;28;20748;-80
2021/09/21 09:35:29;;;;;;;6.03;5.50;;;16.40;99.90;;;;;;5019933;28;20412;-80
2021/09/21 09:37:58;;;;;;;6.20;5.60;;;15.90;99.90;;;;;;5012401;28;20772;-81
2021/09/21 09:40:25;;;;;;;6.70;5.10;;;16.70;99.90;;;;;;5026610;28;20444;-82
2021/09/21 09:42:50;;;;;;;6.83;6.13;;;17.50;99.90;;;;;;5016682;28;20687;-81
2021/09/21 09:45:37;;;;;;;5.53;5.13;;;17.90;99.90;;;;;;5027641;28;20435;-83
2021/09/21 09:48:05;;;;;;;8.30;6.03;;;17.90;99.90;;;;;;4999505;28;20412;-81
2021/09/21 09:50:34;;;;;;;9.07;6.73;;;18.20;99.90;;;;;;5018111;28;20416;-81
2021/09/21 09:53:04;;;;;;;5.23;4.80;;;18.50;99.90;;;;;;5026792;28;20408;-82
2021/09/21 09:55:32;;;;;;;6.30;5.80;;;18.50;99.90;;;;;;4992136;28;20416;-82
2021/09/21 09:58:00;;;;;;;7.10;6.40;;;18.70;99.90;;;;;;4998420;28;21050;-81
2021/09/21 10:00:26;;;;;;;6.27;5.67;;;18.80;99.90;;;;;;5011206;28;20448;-82
2021/09/21 10:02:53;;;;;;;5.47;4.83;;;18.70;99.90;;;;;;4999332;28;20924;-81
2021/09/21 10:05:19;;;;;;;7.10;6.47;;;18.20;99.90;;;;;;5008217;28;20889;-82
2021/09/21 10:07:46;;;;;;;6.17;5.57;;;18.20;99.90;;;;;;5013395;28;21067;-81
2021/09/21 10:10:12;;;;;;;7.43;6.40;;;17.50;99.90;;;;;;5008774;28;20937;-82
2021/09/21 10:12:40;;;;;;;6.60;5.93;;;17.00;99.90;;;;;;5005422;28;20404;-82
2021/09/21 10:15:08;;;;;;;6.10;5.50;;;17.20;99.90;;;;;;5017686;28;20423;-81
2021/09/21 10:17:35;;;;;;;8.27;6.70;;;18.90;99.90;;;;;;5002541;28;20413;-82
2021/09/21 10:20:12;;;;;;;7.50;6.47;;;20.20;99.90;;;;;;5007161;28;20432;-81
2021/09/21 10:22:38;;;;;;;10.10;6.30;;;19.30;99.90;;;;;;4997300;28;20433;-82
2021/09/21 10:25:07;;;;;;;6.77;6.10;;;19.20;99.90;;;;;;4996519;28;20393;-81
2021/09/21 10:27:37;;;;;;;5.53;5.13;;;18.00;99.90;;;;;;4980905;28;20513;-80
2021/09/21 10:30:07;;;;;;;6.03;5.37;;;18.70;99.90;;;;;;4998337;28;20441;-82
2021/09/21 10:32:43;;;;;;;6.13;5.63;;;17.90;99.90;;;;;;4996982;28;20452;-82
2021/09/21 10:35:12;;;;;;;7.07;5.17;;;18.10;99.90;;;;;;4997133;28;20461;-81
2021/09/21 10:37:38;;;;;;;6.20;4.73;;;17.10;99.90;;;;;;4996820;28;20425;-82
2021/09/21 10:40:06;;;;;;;5.20;4.80;;;17.60;99.90;;;;;;4997916;28;20723;-82
2021/09/21 10:42:51;;;;;;;6.03;5.00;;;18.60;99.90;;;;;;4998032;28;20166;-81
2021/09/21 10:45:25;;;;;;;5.57;5.03;;;18.70;99.90;;;;;;4967048;28;20922;-81
2021/09/21 10:48:00;;;;;;;5.30;4.30;;;18.00;99.70;;;;;;5015195;28;20824;-80
2021/09/21 10:50:27;;;;;;;6.00;5.50;;;18.00;99.90;;;;;;4978373;28;20424;-84
2021/09/21 10:53:06;;;;;;;6.07;5.47;;;18.30;99.90;;;;;;4970660;28;20409;-81
2021/09/21 10:55:37;;;;;;;6.30;5.80;;;17.50;99.90;;;;;;4996167;28;20500;-82
2021/09/21 10:58:06;;;;;;;5.13;4.63;;;17.70;99.90;;;;;;4995408;28;20787;-82
2021/09/21 11:00:34;;;;;;;5.87;5.13;;;19.20;99.90;;;;;;4970824;28;20425;-82
2021/09/21 11:03:02;;;;;;;4.80;4.40;;;18.50;96.90;;;;;;4981748;28;20413;-82
2021/09/21 11:05:28;;;;;;;4.90;4.50;;;20.00;94.60;;;;;;4996867;28;20425;-80
2021/09/21 11:07:59;;;;;;;5.40;4.90;;;20.10;95.30;;;;;;4977474;28;20954;-82
2021/09/21 11:10:30;;;;;;;4.53;4.13;;;21.60;91.30;;;;;;4950090;28;20194;-80
2021/09/21 11:12:57;;;;;;;5.70;5.00;;;22.00;81.00;;;;;;4994131;28;20421;-81
2021/09/21 11:15:26;;;;;;;4.90;4.53;;;21.90;82.50;;;;;;4996192;28;20494;-82
2021/09/21 11:18:06;;;;;;;5.67;5.27;;;21.10;82.00;;;;;;5000584;28;20481;-82
2021/09/21 11:20:33;;;;;;;10.30;4.53;;;19.30;81.50;;;;;;4996867;28;20432;-82
2021/09/21 11:23:02;;;;;;;4.60;4.20;;;21.20;81.50;;;;;;5019443;28;20403;-81
2021/09/21 11:25:29;;;;;;;5.30;4.80;;;21.40;78.90;;;;;;5035294;28;20440;-82
2021/09/21 11:27:56;;;;;;;5.63;5.20;;;21.80;78.10;;;;;;5026687;28;20420;-81
2021/09/21 11:30:24;;;;;;;4.63;4.27;;;21.80;77.00;;;;;;5024705;28;20455;-83
2021/09/21 11:32:50;;;;;;;5.80;5.30;;;22.10;84.80;;;;;;5020809;28;20892;-81
2021/09/21 11:35:18;;;;;;;5.87;5.37;;;22.40;81.30;;;;;;5020444;28;20423;-81
2021/09/21 11:37:47;;;;;;;5.40;4.90;;;22.20;79.60;;;;;;5020743;28;20206;-82
2021/09/21 11:40:29;;;;;;;5.97;5.47;;;21.80;81.30;;;;;;5023378;28;20440;-81
2021/09/21 11:42:56;;;;;;;5.33;4.83;;;21.10;85.70;;;;;;5018253;28;21023;-79
2021/09/21 11:45:22;;;;;;;11.67;5.30;;;20.90;80.40;;;;;;5006208;28;20437;-82
2021/09/21 11:47:50;;;;;;;5.57;5.07;;;19.40;86.10;;;;;;5002541;28;20490;-83
2021/09/21 11:50:19;;;;;;;5.20;4.70;;;19.00;82.20;;;;;;5016178;28;20487;-82
2021/09/21 11:52:51;;;;;;;5.60;5.10;;;19.80;87.30;;;;;;5023567;28;20654;-81
2021/09/21 11:55:19;;;;;;;5.20;4.80;;;20.10;86.10;;;;;;5015148;28;20440;-82
2021/09/21 11:57:46;;;;;;;5.37;4.87;;;20.00;86.40;;;;;;5018383;28;20472;-82
2021/09/21 12:00:21;;;;;;;5.83;5.30;;;20.70;87.40;;;;;;5014225;28;20436;-82
2021/09/21 12:02:52;;;;;;;7.60;4.30;;;21.20;82.20;;;;;;5020986;28;20440;-81
2021/09/21 12:05:18;;;;;;;5.87;5.47;;;20.40;80.70;;;;;;5014768;28;20445;-82
2021/09/21 12:07:44;;;;;;;5.30;4.90;;;18.90;83.40;;;;;;5024131;28;20444;-82
2021/09/21 12:10:11;;;;;;;5.00;4.60;;;17.70;83.40;;;;;;5030165;28;20225;-82
2021/09/21 12:12:36;;;;;;;5.40;4.90;;;18.30;84.80;;;;;;5018563;28;20429;-82
2021/09/21 12:15:03;;;;;;;5.53;5.03;;;18.30;84.30;;;;;;5014448;28;20508;-82
2021/09/21 12:17:29;;;;;;;5.73;5.17;;;19.30;83.70;;;;;;5014619;28;20236;-81
2021/09/21 12:19:59;;;;;;;5.77;5.30;;;21.10;82.40;;;;;;4996679;28;20440;-82
2021/09/21 12:22:27;;;;;;;5.10;4.60;;;21.40;80.10;;;;;;5008424;28;20295;-82
2021/09/21 12:24:53;;;;;;;5.40;4.17;;;21.30;79.80;;;;;;5012151;28;20498;-82
2021/09/21 12:27:24;;;;;;;8.10;4.87;;;21.70;75.10;;;;;;5007275;28;20428;-81
2021/09/21 12:29:50;;;;;;;4.57;4.27;;;22.00;80.00;;;;;;5015034;28;20975;-82
2021/09/21 12:32:15;;;;;;;4.87;4.40;;;21.70;74.00;;;;;;5012214;28;20751;-83
2021/09/21 12:34:43;;;;;;;4.67;4.27;;;22.10;75.10;;;;;;5008873;28;20517;-81
2021/09/21 12:37:09;;;;;;;5.70;5.20;;;23.60;72.50;;;;;;5019523;28;20244;-84
2021/09/21 12:39:35;;;;;;;5.33;4.93;;;22.10;73.50;;;;;;5004518;28;20444;-79
2021/09/21 12:42:03;;;;;;;5.20;4.80;;;20.80;75.50;;;;;;5020458;28;20610;-83
2021/09/21 12:44:29;;;;;;;5.60;4.50;;;22.90;78.10;;;;;;5029695;28;20463;-82
2021/09/21 12:47:05;;;;;;;5.50;5.00;;;22.70;73.00;;;;;;5011813;28;20443;-83
2021/09/21 12:49:42;;;;;;;4.73;4.43;;;23.00;76.20;;;;;;5019266;28;20601;-82
2021/09/21 12:52:08;;;;;;;5.13;4.73;;;24.60;73.20;;;;;;5020367;28;20814;-81
2021/09/21 12:54:34;;;;;;;5.47;4.93;;;25.90;67.70;;;;;;5018990;28;20927;-83
2021/09/21 12:57:01;;;;;;;5.00;4.60;;;24.40;63.70;;;;;;5000205;28;20213;-83